Time;durP1;ratioP1;P1;durP2;ratioP2;P2;SDS_P1;SDS_P2;PMS_P1;PMS_P2;Temp;Humidity;BMP_temperature;BMP_pressure;BME280_temperature;BME280_humidity;BME280_pressure;Samples;Min_cycle;Max_cycle;Signal;HPM_P1;HPM_P2
2022/10/01 00:02:08;;;;;;;5.15;2.85;;;;;;;30.88;24.84;97947.91;5065862;28;20048;-78
2022/10/01 00:04:41;;;;;;;3.53;2.85;;;;;;;31.06;24.59;97939.28;5065249;28;20032;-79
2022/10/01 00:07:13;;;;;;;4.15;2.97;;;;;;;31.23;24.13;97941.16;5063969;28;20037;-79
2022/10/01 00:09:39;;;;;;;4.20;3.08;;;;;;;31.49;23.84;97946.31;5061896;28;20045;-79
2022/10/01 00:12:06;;;;;;;3.17;2.35;;;;;;;31.68;23.82;97953.38;5071162;28;20040;-79
2022/10/01 00:14:32;;;;;;;4.07;2.97;;;;;;;31.65;23.85;97940.94;5066322;28;20036;-79
2022/10/01 00:16:58;;;;;;;3.22;2.92;;;;;;;31.36;24.25;97938.06;5044725;28;20043;-79
2022/10/01 00:19:24;;;;;;;2.58;2.17;;;;;;;30.99;24.44;97923.44;5067688;28;20040;-78
2022/10/01 00:21:50;;;;;;;2.47;2.28;;;;;;;30.66;24.91;97925.53;5068296;28;20024;-78
2022/10/01 00:24:16;;;;;;;3.50;2.92;;;;;;;30.39;24.94;97928.53;5072450;28;20037;-79
2022/10/01 00:26:44;;;;;;;3.22;2.92;;;;;;;29.92;25.60;97929.22;5070508;28;20033;-79
2022/10/01 00:29:13;;;;;;;2.63;2.42;;;;;;;30.05;25.63;97924.13;5069073;28;20037;-79
2022/10/01 00:31:40;;;;;;;2.78;2.55;;;;;;;30.58;24.76;97924.31;5063136;28;20115;-79
2022/10/01 00:34:06;;;;;;;3.10;2.63;;;;;;;30.97;24.07;97923.09;5064053;28;20028;-79
2022/10/01 00:36:33;;;;;;;2.40;2.20;;;;;;;31.16;23.77;97918.84;5064409;28;20040;-79
2022/10/01 00:38:59;;;;;;;2.70;2.42;;;;;;;31.30;23.72;97918.09;5067854;28;20044;-79
2022/10/01 00:41:30;;;;;;;2.33;2.13;;;;;;;30.65;24.16;97913.41;5069723;28;20553;-80
2022/10/01 00:43:59;;;;;;;2.53;2.30;;;;;;;30.26;24.74;97913.78;5066753;28;20394;-79
2022/10/01 00:46:43;;;;;;;1.85;1.70;;;;;;;30.46;24.64;97914.78;5064092;28;20504;-79
2022/10/01 00:49:17;;;;;;;1.95;1.70;;;;;;;30.46;24.74;97917.63;5069005;28;20522;-79
2022/10/01 00:51:48;;;;;;;2.85;2.38;;;;;;;30.65;24.26;97907.75;5070631;28;20029;-79
2022/10/01 00:54:19;;;;;;;2.75;2.35;;;;;;;30.83;24.13;97911.72;5070957;28;20109;-79
2022/10/01 00:56:46;;;;;;;4.50;2.25;;;;;;;30.94;23.90;97901.41;5071736;28;20037;-79
2022/10/01 00:59:15;;;;;;;2.85;2.08;;;;;;;30.71;24.20;97893.69;5072223;28;20043;-79
2022/10/01 01:01:41;;;;;;;4.40;2.28;;;;;;;30.34;24.56;97890.31;5060538;28;20037;-80
2022/10/01 01:04:16;;;;;;;3.53;2.65;;;;;;;30.55;24.49;97899.78;5065708;28;20051;-80
2022/10/01 01:06:55;;;;;;;2.95;2.42;;;;;;;30.87;24.08;97906.63;5042750;28;20056;-79
2022/10/01 01:09:28;;;;;;;3.22;2.50;;;;;;;31.10;23.68;97903.78;5069937;28;20033;-79
2022/10/01 01:12:13;;;;;;;3.50;2.85;;;;;;;31.28;23.52;97902.81;5056868;28;20029;-79
2022/10/01 01:14:57;;;;;;;2.58;2.20;;;;;;;31.33;23.27;97908.59;5071452;28;20131;-79
2022/10/01 01:17:47;;;;;;;5.10;3.95;;;;;;;31.33;23.16;97916.34;5071104;28;20048;-79
2022/10/01 01:20:43;;;;;;;3.88;3.03;;;;;;;31.25;23.52;97918.00;5073009;28;20502;-78
2022/10/01 01:23:17;;;;;;;3.35;2.65;;;;;;;31.35;23.62;97913.78;5068569;28;20098;-79
2022/10/01 01:25:58;;;;;;;3.83;2.85;;;;;;;31.45;23.36;97917.34;5068913;28;20116;-79
2022/10/01 01:28:30;;;;;;;;;;;;;;;31.38;23.03;97915.66;5070410;28;20036;-78
2022/10/01 01:31:01;;;;;;;3.75;2.95;;;;;;;30.87;23.36;97907.44;5061397;28;20011;-79
2022/10/01 01:33:29;;;;;;;;;;;;;;;30.37;23.76;97914.06;5064388;28;20031;-78
2022/10/01 01:36:03;;;;;;;3.08;1.98;;;;;;;30.44;24.15;97925.81;5066607;28;19947;-79
2022/10/01 01:38:37;;;;;;;2.55;2.15;;;;;;;30.80;23.78;97927.63;5070408;28;20078;-79
2022/10/01 01:41:06;;;;;;;3.70;2.35;;;;;;;31.10;23.59;97931.34;5061325;28;20037;-79
2022/10/01 01:43:44;;;;;;;2.58;2.05;;;;;;;31.30;23.36;97929.44;5053251;28;20111;-79
2022/10/01 01:46:16;;;;;;;3.75;2.55;;;;;;;31.49;23.17;97926.44;5069148;28;20040;-79
2022/10/01 01:48:48;;;;;;;2.60;2.40;;;;;;;31.20;23.41;97927.19;5054504;28;20117;-79
2022/10/01 01:51:22;;;;;;;3.10;2.33;;;;;;;30.78;23.92;97933.78;5069845;28;20090;-79
2022/10/01 01:53:49;;;;;;;3.10;2.80;;;;;;;30.82;23.59;97941.31;5067956;28;20025;-79
2022/10/01 01:56:16;;;;;;;4.22;2.97;;;;;;;30.84;23.66;97935.94;5067887;28;20044;-79
2022/10/01 01:58:43;;;;;;;3.03;2.53;;;;;;;30.95;23.59;97922.81;5071220;28;20138;-79
2022/10/01 02:01:37;;;;;;;2.75;2.47;;;;;;;31.00;23.75;97933.50;5050466;28;20054;-79
2022/10/01 02:04:14;;;;;;;2.40;2.20;;;;;;;31.13;23.37;97936.06;5080841;28;20043;-78
2022/10/01 02:06:52;;;;;;;2.70;2.50;;;;;;;31.20;23.50;97933.63;5067984;28;20037;-78
2022/10/01 02:09:31;;;;;;;2.45;1.90;;;;;;;31.42;23.03;97930.44;5066349;28;20039;-78
2022/10/01 02:12:16;;;;;;;2.35;2.15;;;;;;;31.53;22.85;97922.13;5064102;28;20482;-78
2022/10/01 02:14:59;;;;;;;3.25;1.80;;;;;;;31.57;22.84;97919.13;5062617;28;20401;-78
2022/10/01 02:17:40;;;;;;;2.80;2.22;;;;;;;31.58;22.76;97924.28;5060067;28;20139;-79
2022/10/01 02:20:20;;;;;;;2.88;2.25;;;;;;;31.26;23.20;97922.38;5061203;28;20101;-78
2022/10/01 02:22:58;;;;;;;4.70;2.58;;;;;;;29.83;24.76;97913.03;5040304;28;20115;-78
2022/10/01 02:25:30;;;;;;;2.22;2.03;;;;;;;29.27;25.93;97926.97;5065231;28;20033;-79
2022/10/01 02:28:04;;;;;;;2.30;2.10;;;;;;;29.77;25.14;97933.97;5069279;28;20074;-79
2022/10/01 02:30:34;;;;;;;2.78;2.33;;;;;;;30.27;24.46;97933.13;5063414;28;20032;-80
2022/10/01 02:33:02;;;;;;;2.03;1.83;;;;;;;30.19;24.78;97937.59;5061107;28;20037;-79
2022/10/01 02:35:31;;;;;;;2.17;1.98;;;;;;;30.06;24.61;97934.94;5065638;28;20036;-79
2022/10/01 02:38:00;;;;;;;2.25;2.05;;;;;;;30.18;24.59;97936.00;5070806;28;20039;-79
2022/10/01 02:40:30;;;;;;;2.58;2.00;;;;;;;30.52;24.02;97931.94;5062790;28;20094;-79
2022/10/01 02:43:03;;;;;;;2.22;2.03;;;;;;;30.57;23.59;97934.09;5060436;28;20094;-79
2022/10/01 02:45:33;;;;;;;1.80;1.67;;;;;;;30.57;24.09;97932.03;5068050;28;20090;-78
2022/10/01 02:48:09;;;;;;;1.88;1.70;;;;;;;30.42;24.24;97939.69;5065966;28;20040;-79
2022/10/01 02:50:50;;;;;;;1.70;1.60;;;;;;;30.53;24.65;97928.59;5048190;28;20055;-79
2022/10/01 02:53:30;;;;;;;2.35;2.13;;;;;;;30.81;23.97;97937.69;5063165;28;20430;-79
2022/10/01 02:55:58;;;;;;;1.92;1.70;;;;;;;30.98;23.57;97941.69;5068900;28;20459;-79
2022/10/01 02:58:24;;;;;;;1.63;1.52;;;;;;;31.04;23.40;97942.59;5062327;28;20024;-78
2022/10/01 03:00:50;;;;;;;1.65;1.55;;;;;;;30.73;23.80;97942.19;5067919;28;20497;-79
2022/10/01 03:03:16;;;;;;;2.75;1.30;;;;;;;30.67;23.91;97947.72;5066059;28;20556;-78
2022/10/01 03:05:43;;;;;;;1.90;1.50;;;;;;;30.79;23.54;97954.41;5071040;28;20047;-78
2022/10/01 03:08:09;;;;;;;2.63;1.45;;;;;;;30.89;23.87;97953.13;5068233;28;20108;-79
2022/10/01 03:10:35;;;;;;;1.63;1.48;;;;;;;31.00;23.27;97961.06;5047163;28;20115;-79
2022/10/01 03:13:01;;;;;;;1.70;1.60;;;;;;;30.91;23.74;97953.41;5069142;28;20071;-78
2022/10/01 03:15:28;;;;;;;2.60;1.83;;;;;;;30.86;23.65;97948.38;5065639;28;20409;-79
2022/10/01 03:17:54;;;;;;;2.38;2.10;;;;;;;30.32;24.29;97951.50;5073418;28;20037;-79
2022/10/01 03:20:21;;;;;;;2.47;2.03;;;;;;;30.03;24.81;97949.28;5064652;28;20508;-79
2022/10/01 03:22:47;;;;;;;2.78;1.80;;;;;;;30.20;24.55;97952.53;5069345;28;20032;-79
2022/10/01 03:25:14;;;;;;;2.53;1.60;;;;;;;30.16;24.76;97949.84;5064255;28;20090;-79
2022/10/01 03:27:41;;;;;;;2.58;1.73;;;;;;;30.38;24.34;97941.94;5062784;28;20032;-78
2022/10/01 03:30:07;;;;;;;2.60;2.08;;;;;;;30.43;24.47;97951.81;5065034;28;20032;-80
2022/10/01 03:32:33;;;;;;;2.55;2.35;;;;;;;29.76;25.21;97953.00;5064888;28;20083;-78
2022/10/01 03:35:00;;;;;;;3.38;2.67;;;;;;;30.11;25.12;97946.91;5065803;28;20035;-79
2022/10/01 03:37:26;;;;;;;2.55;2.22;;;;;;;30.53;24.42;97941.97;5068006;28;20047;-79
2022/10/01 03:39:52;;;;;;;2.13;1.92;;;;;;;30.69;24.16;97939.50;5045208;28;20387;-79
2022/10/01 03:42:18;;;;;;;3.35;2.45;;;;;;;30.76;23.80;97941.19;5072839;28;20563;-79
2022/10/01 03:44:44;;;;;;;2.03;1.60;;;;;;;30.84;23.77;97938.78;5062235;28;20494;-80
2022/10/01 03:47:10;;;;;;;2.05;1.85;;;;;;;30.74;24.03;97943.72;5064204;28;20040;-79
2022/10/01 03:49:36;;;;;;;3.20;2.22;;;;;;;30.84;23.97;97942.41;5066267;28;20474;-79
2022/10/01 03:52:05;;;;;;;2.67;1.80;;;;;;;31.05;23.45;97944.16;5063766;28;20056;-79
2022/10/01 03:54:31;;;;;;;1.92;1.50;;;;;;;30.83;23.77;97934.41;5069682;28;20032;-79
2022/10/01 03:56:58;;;;;;;1.98;1.77;;;;;;;30.94;23.94;97931.81;5067544;28;20083;-79
2022/10/01 03:59:26;;;;;;;1.90;1.75;;;;;;;31.04;23.44;97941.81;5068738;28;20029;-79
2022/10/01 04:01:52;;;;;;;2.60;1.77;;;;;;;31.04;23.58;97939.00;5063079;28;20086;-80
2022/10/01 04:04:19;;;;;;;2.70;2.08;;;;;;;31.02;23.91;97935.81;5065895;28;20045;-79
2022/10/01 04:06:45;;;;;;;2.20;2.00;;;;;;;31.22;23.51;97933.16;5066225;28;20072;-78
2022/10/01 04:09:11;;;;;;;1.80;1.65;;;;;;;31.31;23.63;97928.19;5062864;28;20154;-79
2022/10/01 04:11:38;;;;;;;2.80;2.10;;;;;;;31.47;23.47;97926.94;5072769;28;20513;-78
2022/10/01 04:14:04;;;;;;;3.10;2.08;;;;;;;31.57;23.04;97921.97;5071160;28;20037;-79
2022/10/01 04:16:33;;;;;;;2.10;1.80;;;;;;;31.63;22.96;97923.63;5064269;28;20505;-78
2022/10/01 04:18:59;;;;;;;3.00;1.92;;;;;;;31.70;22.83;97928.09;5065425;28;20067;-79
2022/10/01 04:21:25;;;;;;;2.70;2.00;;;;;;;31.56;23.31;97924.00;5068380;28;20047;-78
2022/10/01 04:23:52;;;;;;;2.67;2.08;;;;;;;31.20;23.80;97927.94;5061243;28;20032;-79
2022/10/01 04:26:18;;;;;;;3.85;2.10;;;;;;;30.99;23.96;97916.97;5071407;28;20071;-79
2022/10/01 04:28:45;;;;;;;3.03;2.30;;;;;;;31.00;24.14;97918.50;5068694;28;20032;-78
2022/10/01 04:31:24;;;;;;;2.25;2.00;;;;;;;31.03;23.84;97920.38;5064692;28;20041;-79
2022/10/01 04:33:55;;;;;;;3.28;2.00;;;;;;;30.83;23.96;97929.47;5066313;28;20421;-79
2022/10/01 04:36:23;;;;;;;2.20;1.90;;;;;;;30.51;24.30;97922.63;5065788;28;20071;-78
2022/10/01 04:38:53;;;;;;;1.95;1.83;;;;;;;30.24;25.06;97933.31;5065205;28;20029;-78
2022/10/01 04:41:19;;;;;;;1.55;1.40;;;;;;;30.43;24.67;97929.94;5047818;28;20046;-78
2022/10/01 04:43:46;;;;;;;2.55;2.05;;;;;;;30.86;23.98;97931.34;5069420;28;20115;-78
2022/10/01 04:46:13;;;;;;;2.72;2.22;;;;;;;31.13;23.78;97930.41;5066596;28;20180;-78
2022/10/01 04:48:39;;;;;;;2.78;2.25;;;;;;;31.34;23.65;97934.94;5065271;28;20075;-79
2022/10/01 04:51:05;;;;;;;3.22;2.35;;;;;;;31.49;23.63;97924.41;5063634;28;20461;-78
2022/10/01 04:53:31;;;;;;;2.78;2.58;;;;;;;31.61;23.12;97923.31;5068073;28;20040;-79
2022/10/01 04:55:57;;;;;;;4.15;2.78;;;;;;;31.62;23.36;97921.28;5068247;28;20079;-79
2022/10/01 04:58:23;;;;;;;3.33;2.70;;;;;;;31.43;23.64;97917.84;5059524;28;20028;-78
2022/10/01 05:00:49;;;;;;;5.70;3.58;;;;;;;31.08;23.69;97920.50;5068077;28;20131;-80
2022/10/01 05:03:17;;;;;;;3.45;2.72;;;;;;;30.92;24.21;97918.13;5066073;28;20119;-78
2022/10/01 05:05:43;;;;;;;3.83;2.67;;;;;;;30.78;24.55;97919.59;5061108;28;20028;-78
2022/10/01 05:08:09;;;;;;;4.43;3.03;;;;;;;30.31;24.83;97913.13;5058700;28;20443;-78
2022/10/01 05:10:35;;;;;;;5.53;3.88;;;;;;;29.63;25.67;97918.41;5060919;28;20490;-79
2022/10/01 05:13:01;;;;;;;4.72;2.75;;;;;;;29.62;25.83;97916.84;5061166;28;20021;-79
2022/10/01 05:15:28;;;;;;;3.55;3.15;;;;;;;29.72;25.61;97911.94;5064422;28;20047;-79
2022/10/01 05:17:55;;;;;;;3.80;3.20;;;;;;;29.89;25.50;97921.66;5065938;28;20039;-79
2022/10/01 05:20:23;;;;;;;3.50;2.38;;;;;;;30.14;25.44;97921.25;5063778;28;20044;-79
2022/10/01 05:22:49;;;;;;;4.05;2.85;;;;;;;30.32;24.93;97911.84;5046640;28;20060;-79
2022/10/01 05:25:16;;;;;;;6.03;2.33;;;;;;;30.04;25.48;97919.69;5060142;28;20033;-78
2022/10/01 05:27:42;;;;;;;3.55;2.72;;;;;;;30.06;25.20;97917.97;5062972;28;20025;-79
2022/10/01 05:30:11;;;;;;;3.88;2.85;;;;;;;29.53;26.05;97927.38;5060890;28;20115;-80
2022/10/01 05:32:37;;;;;;;3.10;2.75;;;;;;;29.22;26.60;97927.63;5064916;28;20065;-78
2022/10/01 05:35:06;;;;;;;4.13;3.13;;;;;;;28.64;27.48;97917.22;5061283;28;20449;-78
2022/10/01 05:37:32;;;;;;;3.78;2.78;;;;;;;29.36;26.98;97929.78;5053228;28;20493;-79
2022/10/01 05:39:58;;;;;;;2.45;2.22;;;;;;;30.19;25.75;97931.13;5063061;28;20120;-79
2022/10/01 05:42:24;;;;;;;3.67;2.78;;;;;;;30.78;25.25;97925.28;5059810;28;20033;-78
2022/10/01 05:44:50;;;;;;;2.80;2.58;;;;;;;31.17;24.40;97926.09;5060052;28;20037;-79
2022/10/01 05:47:19;;;;;;;3.70;2.70;;;;;;;31.09;24.53;97932.63;5058734;28;20040;-79
2022/10/01 05:49:45;;;;;;;3.15;2.85;;;;;;;30.11;25.86;97938.41;5057443;28;20389;-78
2022/10/01 05:52:13;;;;;;;2.88;2.55;;;;;;;29.44;26.68;97939.53;5065376;28;20063;-78
2022/10/01 05:54:39;;;;;;;3.83;3.25;;;;;;;29.37;26.94;97939.84;5044745;28;20033;-79
2022/10/01 05:57:06;;;;;;;3.97;2.88;;;;;;;29.52;26.77;97939.97;5061110;28;20124;-79
2022/10/01 05:59:33;;;;;;;3.42;3.13;;;;;;;29.43;27.12;97944.38;5059557;28;20025;-79
2022/10/01 06:01:59;;;;;;;5.32;4.03;;;;;;;29.41;26.83;97943.28;5055545;28;20044;-79
2022/10/01 06:04:26;;;;;;;5.72;4.18;;;;;;;29.26;26.87;97937.50;5055788;28;20043;-80
2022/10/01 06:06:54;;;;;;;5.72;4.03;;;;;;;29.44;27.08;97939.53;5062966;28;20040;-79
2022/10/01 06:09:20;;;;;;;6.53;4.50;;;;;;;29.69;26.58;97933.47;5061055;28;20087;-79
2022/10/01 06:11:48;;;;;;;6.75;4.70;;;;;;;29.28;27.20;97929.34;5056790;28;20048;-79
2022/10/01 06:14:15;;;;;;;6.78;5.13;;;;;;;29.51;27.12;97922.22;5059145;28;20041;-79
2022/10/01 06:16:41;;;;;;;8.15;6.07;;;;;;;28.71;28.00;97928.19;5061008;28;20455;-79
2022/10/01 06:19:07;;;;;;;7.10;5.03;;;;;;;27.83;29.18;97920.53;5064231;28;20055;-79
2022/10/01 06:21:34;;;;;;;6.60;5.15;;;;;;;28.13;29.06;97920.97;5063328;28;20040;-79
2022/10/01 06:24:00;;;;;;;8.13;5.43;;;;;;;28.90;27.93;97917.69;5060206;28;20044;-79
2022/10/01 06:26:28;;;;;;;7.78;5.20;;;;;;;28.84;27.87;97921.63;5058911;28;20085;-79
2022/10/01 06:28:55;;;;;;;9.55;5.53;;;;;;;29.37;27.58;97920.84;5066332;28;20048;-79
2022/10/01 06:31:21;;;;;;;6.43;4.85;;;;;;;30.12;26.62;97912.44;5061516;28;20116;-79
2022/10/01 06:33:47;;;;;;;7.10;4.90;;;;;;;30.51;25.95;97911.28;5064685;28;20025;-79
2022/10/01 06:36:13;;;;;;;8.13;5.53;;;;;;;30.62;25.75;97913.59;5064483;28;20367;-79
2022/10/01 06:38:39;;;;;;;8.30;6.13;;;;;;;30.24;25.94;97911.44;5065729;28;20029;-79
2022/10/01 06:41:05;;;;;;;8.07;5.93;;;;;;;30.29;26.31;97910.00;5071194;28;20098;-79
2022/10/01 06:43:32;;;;;;;9.20;6.05;;;;;;;30.08;26.42;97906.94;5066843;28;20033;-79
2022/10/01 06:46:03;;;;;;;8.52;6.63;;;;;;;29.96;26.68;97902.28;5063811;28;20040;-79
2022/10/01 06:48:30;;;;;;;;;;;;;;;29.37;26.96;97909.53;5064274;28;20040;-79
2022/10/01 06:50:57;;;;;;;8.43;5.30;;;;;;;29.78;27.26;97902.34;5068652;28;20500;-79
2022/10/01 06:53:25;;;;;;;9.45;5.90;;;;;;;30.21;26.45;97901.06;5065820;28;20033;-79
2022/10/01 06:55:51;;;;;;;7.65;6.15;;;;;;;30.58;25.99;97898.81;5069125;28;20033;-79
2022/10/01 06:58:23;;;;;;;10.55;6.95;;;;;;;30.72;25.78;97910.22;5065284;28;20032;-79
2022/10/01 07:00:49;;;;;;;8.77;6.47;;;;;;;30.60;25.61;97904.78;5066524;28;20070;-79
2022/10/01 07:03:19;;;;;;;10.02;6.97;;;;;;;30.40;25.99;97901.78;5067427;28;20041;-79
2022/10/01 07:05:46;;;;;;;10.67;6.37;;;;;;;30.41;26.30;97892.00;5061895;28;20535;-79
2022/10/01 07:08:13;;;;;;;9.05;6.43;;;;;;;30.13;26.56;97902.66;5065799;28;20037;-79
2022/10/01 07:10:40;;;;;;;8.20;5.85;;;;;;;30.48;26.08;97898.09;5062766;28;20036;-79
2022/10/01 07:13:11;;;;;;;8.70;6.25;;;;;;;30.49;26.58;97904.53;5063447;28;20075;-78
2022/10/01 07:15:38;;;;;;;8.93;5.97;;;;;;;29.81;27.13;97894.94;5064819;28;20060;-79
2022/10/01 07:18:04;;;;;;;8.57;6.25;;;;;;;29.55;27.60;97893.75;5063292;28;20045;-79
2022/10/01 07:20:34;;;;;;;8.82;5.95;;;;;;;29.11;28.18;97899.00;5064575;28;20040;-79
2022/10/01 07:23:00;;;;;;;8.43;5.40;;;;;;;29.23;27.84;97898.84;5060089;28;20033;-78
2022/10/01 07:25:27;;;;;;;10.50;6.75;;;;;;;29.41;27.90;97895.19;5067914;28;20425;-79
2022/10/01 07:28:04;;;;;;;8.45;5.18;;;;;;;29.61;27.44;97886.19;5069870;28;20433;-79
2022/10/01 07:30:31;;;;;;;9.15;6.25;;;;;;;29.34;27.87;97899.16;5067015;28;23054;-78
2022/10/01 07:32:57;;;;;;;8.13;6.45;;;;;;;29.06;28.48;97886.28;5063826;28;20149;-80
2022/10/01 07:35:23;;;;;;;8.02;5.60;;;;;;;28.74;28.95;97890.53;5070453;28;20028;-80
2022/10/01 07:37:50;;;;;;;10.85;6.22;;;;;;;29.08;29.05;97885.81;5069137;28;20107;-80
2022/10/01 07:40:17;;;;;;;9.15;6.10;;;;;;;28.79;29.03;97880.66;5065643;28;20076;-80
2022/10/01 07:42:53;;;;;;;7.75;5.50;;;;;;;28.91;28.84;97885.34;5072905;28;20063;-80
2022/10/01 07:45:21;;;;;;;8.20;5.03;;;;;;;29.76;27.78;97872.94;5048320;28;20063;-79
2022/10/01 07:47:55;;;;;;;7.47;5.75;;;;;;;30.02;27.38;97876.94;5062275;28;20028;-80
2022/10/01 07:50:21;;;;;;;7.20;5.28;;;;;;;30.09;27.27;97876.56;5071584;28;20059;-80
2022/10/01 07:52:51;;;;;;;8.55;5.45;;;;;;;29.74;27.93;97884.72;5071433;28;20032;-79
2022/10/01 07:55:18;;;;;;;7.18;5.00;;;;;;;30.04;27.19;97875.19;5062657;28;20524;-79
2022/10/01 07:57:50;;;;;;;7.35;5.28;;;;;;;30.30;27.06;97874.72;5070124;28;20025;-79
2022/10/01 08:00:16;;;;;;;7.28;5.13;;;;;;;29.41;28.44;97873.34;5070651;28;20075;-80
2022/10/01 08:02:47;;;;;;;6.38;5.00;;;;;;;29.44;28.39;97871.63;5063585;28;20119;-79
2022/10/01 08:05:16;;;;;;;7.00;5.00;;;;;;;28.50;29.71;97872.59;5065851;28;20033;-79
2022/10/01 08:07:43;;;;;;;5.80;4.45;;;;;;;29.19;28.91;97864.31;5063656;28;20031;-84
2022/10/01 08:10:09;;;;;;;6.50;4.90;;;;;;;28.57;29.90;97858.16;5053337;28;20090;-80
2022/10/01 08:12:35;;;;;;;5.68;3.90;;;;;;;28.40;30.68;97864.59;5070531;28;20398;-80
2022/10/01 08:15:01;;;;;;;5.30;4.10;;;;;;;28.76;29.68;97870.28;5034774;28;20138;-80
2022/10/01 08:17:27;;;;;;;6.82;5.43;;;;;;;29.08;29.50;97866.78;5065122;28;20052;-80
2022/10/01 08:19:53;;;;;;;5.45;4.25;;;;;;;29.42;29.27;97857.19;5073223;28;20127;-79
2022/10/01 08:22:19;;;;;;;5.97;4.53;;;;;;;29.39;29.00;97852.47;5065602;28;20033;-81
2022/10/01 08:24:49;;;;;;;5.15;3.95;;;;;;;29.10;29.38;97847.31;5070092;28;20071;-79
2022/10/01 08:27:27;;;;;;;5.38;3.72;;;;;;;29.05;30.03;97859.28;5061606;28;20028;-80
2022/10/01 08:29:54;;;;;;;6.25;5.03;;;;;;;28.81;30.32;97860.38;5066171;28;20028;-84
2022/10/01 08:32:22;;;;;;;5.20;4.65;;;;;;;28.18;31.21;97849.78;5071177;28;20029;-82
2022/10/01 08:34:48;;;;;;;6.68;4.82;;;;;;;28.50;30.47;97847.16;5069459;28;20078;-81
2022/10/01 08:37:15;;;;;;;4.72;3.80;;;;;;;28.87;29.74;97852.84;5064857;28;20036;-81
2022/10/01 08:39:41;;;;;;;4.80;3.65;;;;;;;29.91;28.13;97843.50;5065927;28;20028;-80
2022/10/01 08:42:36;;;;;;;4.55;3.80;;;;;;;30.19;28.67;97846.16;5065570;28;20040;-80
2022/10/01 08:45:18;;;;;;;4.43;3.97;;;;;;;29.49;29.46;97834.22;5065943;28;20111;-79
2022/10/01 08:47:52;;;;;;;4.72;3.58;;;;;;;30.03;28.78;97831.16;5068100;28;20588;-79
2022/10/01 08:50:18;;;;;;;4.85;3.72;;;;;;;30.20;28.83;97816.59;5067377;28;20033;-79
2022/10/01 08:52:56;;;;;;;5.03;3.83;;;;;;;29.85;29.73;97822.00;5062359;28;20394;-78
2022/10/01 08:55:25;;;;;;;4.05;3.50;;;;;;;29.22;30.58;97820.91;5064524;28;20032;-78
2022/10/01 08:57:57;;;;;;;5.18;4.10;;;;;;;29.24;30.76;97815.56;5064002;28;20037;-78
2022/10/01 09:00:32;;;;;;;4.10;3.55;;;;;;;30.13;28.66;97814.88;5063483;28;20036;-80
2022/10/01 09:03:03;;;;;;;3.17;2.88;;;;;;;30.21;28.80;97810.44;5061575;28;23153;-80
2022/10/01 09:05:33;;;;;;;3.08;2.78;;;;;;;30.54;28.49;97816.81;5068414;28;20043;-79
2022/10/01 09:08:23;;;;;;;5.00;2.78;;;;;;;31.27;27.80;97816.16;5066817;28;20059;-80
2022/10/01 09:11:05;;;;;;;2.88;2.38;;;;;;;31.80;27.06;97810.31;5065384;28;20413;-80
2022/10/01 09:14:08;;;;;;;3.05;2.70;;;;;;;32.19;26.76;97811.69;5068105;28;20028;-79
2022/10/01 09:17:03;;;;;;;4.57;3.35;;;;;;;32.61;25.99;97814.84;5063576;28;20040;-79
2022/10/01 09:19:53;;;;;;;3.30;2.90;;;;;;;32.05;26.73;97806.84;5065755;28;20128;-79
2022/10/01 09:22:40;;;;;;;3.33;3.03;;;;;;;32.48;27.18;97807.94;5066531;28;20150;-79
2022/10/01 09:25:18;;;;;;;4.78;2.47;;;;;;;32.59;26.92;97811.72;5065248;28;20036;-79
2022/10/01 09:27:45;;;;;;;2.80;2.42;;;;;;;31.66;27.05;97808.31;5065282;28;20086;-79
2022/10/01 09:30:20;;;;;;;2.53;2.28;;;;;;;31.54;27.65;97806.56;5043666;28;20044;-80
2022/10/01 09:33:08;;;;;;;3.75;3.20;;;;;;;29.92;29.22;97804.66;5059248;28;20033;-79
2022/10/01 09:35:48;;;;;;;3.50;3.10;;;;;;;30.63;29.19;97799.75;5064181;28;20115;-79
2022/10/01 09:38:32;;;;;;;2.47;2.28;;;;;;;30.84;29.07;97797.03;5059347;28;20033;-79
2022/10/01 09:40:58;;;;;;;3.58;2.85;;;;;;;30.87;29.09;97794.00;5061681;28;20024;-79
2022/10/01 09:43:33;;;;;;;3.00;2.40;;;;;;;30.26;30.37;97786.31;5070721;28;20037;-79
2022/10/01 09:45:59;;;;;;;2.88;2.67;;;;;;;30.35;30.41;97777.78;5069280;28;20490;-79
2022/10/01 09:48:51;;;;;;;2.97;2.60;;;;;;;29.80;31.49;97785.84;5066104;28;20482;-79
2022/10/01 09:51:23;;;;;;;3.53;3.22;;;;;;;29.69;31.11;97780.66;5062585;28;20040;-79
2022/10/01 09:54:14;;;;;;;4.60;3.50;;;;;;;30.16;30.80;97777.09;5064836;28;20435;-79
2022/10/01 09:56:48;;;;;;;3.30;3.00;;;;;;;30.80;28.93;97785.09;5061000;28;20555;-80
2022/10/01 09:59:25;;;;;;;2.58;2.28;;;;;;;29.26;30.50;97778.34;5066234;28;20041;-80
2022/10/01 10:01:59;;;;;;;1.98;1.80;;;;;;;29.20;32.10;97781.03;5067160;28;20524;-79
2022/10/01 10:04:25;;;;;;;2.78;2.17;;;;;;;28.99;31.55;97778.38;5063522;28;20060;-79
2022/10/01 10:07:00;;;;;;;2.20;2.00;;;;;;;30.26;30.47;97772.94;5065405;28;20037;-78
2022/10/01 10:09:30;;;;;;;3.08;2.78;;;;;;;30.67;29.97;97777.66;5065768;28;20119;-77
2022/10/01 10:11:58;;;;;;;8.05;6.72;;;;;;;28.82;32.37;97775.16;5067296;28;20041;-78
2022/10/01 10:14:36;;;;;;;3.83;3.17;;;;;;;29.94;30.93;97768.16;5068456;28;20421;-82
2022/10/01 10:17:11;;;;;;;2.95;2.75;;;;;;;30.59;29.71;97775.69;5064107;28;20052;-81
2022/10/01 10:19:39;;;;;;;3.55;2.97;;;;;;;31.49;28.32;97768.31;5061267;28;20089;-81
2022/10/01 10:22:22;;;;;;;5.50;5.00;;;;;;;30.33;30.17;97769.78;5064864;28;20033;-81
2022/10/01 10:24:48;;;;;;;5.68;4.30;;;;;;;29.54;31.67;97762.84;5067700;28;20390;-80
2022/10/01 10:27:29;;;;;;;4.00;2.97;;;;;;;29.85;31.61;97754.06;5063016;28;20030;-80
2022/10/01 10:30:15;;;;;;;3.50;3.20;;;;;;;29.76;30.93;97762.56;5065029;28;20032;-80
2022/10/01 10:32:43;;;;;;;4.38;3.88;;;;;;;28.43;33.22;97747.81;5065028;28;20024;-80
2022/10/01 10:35:14;;;;;;;4.00;3.60;;;;;;;28.93;32.21;97752.81;5045863;28;20098;-80
2022/10/01 10:37:49;;;;;;;3.97;3.50;;;;;;;29.23;32.80;97748.19;5038614;28;20036;-80
2022/10/01 10:40:19;;;;;;;5.78;4.50;;;;;;;28.68;33.09;97747.53;5069015;28;20042;-80
2022/10/01 10:42:54;;;;;;;4.35;3.47;;;;;;;30.08;30.63;97739.09;5064647;28;20111;-80
2022/10/01 10:45:44;;;;;;;4.55;3.72;;;;;;;28.93;31.41;97733.03;5053370;28;20036;-80
2022/10/01 10:48:17;;;;;;;3.20;2.90;;;;;;;29.06;32.61;97725.13;5059715;28;20028;-80
2022/10/01 10:50:45;;;;;;;3.83;2.70;;;;;;;28.51;33.35;97718.03;5061800;28;20036;-80
2022/10/01 10:53:23;;;;;;;3.40;3.03;;;;;;;29.47;32.10;97722.78;5062853;28;20501;-80
2022/10/01 10:56:01;;;;;;;3.42;3.13;;;;;;;29.88;31.59;97714.22;5066692;28;20398;-80
2022/10/01 10:58:32;;;;;;;4.93;3.08;;;;;;;30.00;31.25;97707.53;5071773;28;20032;-79
2022/10/01 11:01:08;;;;;;;3.60;3.00;;;;;;;30.49;30.67;97695.66;5066097;28;20052;-79
2022/10/01 11:03:37;;;;;;;3.30;2.95;;;;;;;30.43;29.79;97694.78;5068461;28;20166;-80
2022/10/01 11:06:11;;;;;;;3.17;2.88;;;;;;;30.60;30.17;97686.56;5062136;28;20048;-80
2022/10/01 11:08:38;;;;;;;3.33;2.47;;;;;;;30.55;29.74;97688.03;5052252;28;20774;-80
2022/10/01 11:11:33;;;;;;;2.50;2.15;;;;;;;31.31;28.32;97686.22;5062452;28;20532;-81
2022/10/01 11:14:36;;;;;;;3.08;2.78;;;;;;;31.18;28.51;97672.34;5061938;28;20498;-80
2022/10/01 11:17:23;;;;;;;2.65;2.22;;;;;;;31.23;29.25;97666.00;5066107;28;20110;-80
2022/10/01 11:20:07;;;;;;;2.13;1.92;;;;;;;31.84;28.49;97666.06;5057585;28;20063;-80
2022/10/01 11:22:56;;;;;;;1.90;1.75;;;;;;;32.38;28.29;97664.41;5069575;28;20086;-79
2022/10/01 11:25:32;;;;;;;4.55;1.98;;;;;;;33.07;26.84;97664.06;5065967;28;20029;-80
2022/10/01 11:28:04;;;;;;;2.10;1.80;;;;;;;33.53;26.62;97654.56;5065596;28;20123;-80
2022/10/01 11:31:09;;;;;;;2.20;2.00;;;;;;;32.88;26.44;97650.69;5068765;28;20024;-82
2022/10/01 11:34:01;;;;;;;2.42;2.22;;;;;;;31.70;28.19;97641.38;5069019;28;20126;-80
2022/10/01 11:36:42;;;;;;;1.65;1.55;;;;;;;32.39;28.21;97646.09;5065912;28;20036;-80
2022/10/01 11:39:17;;;;;;;1.35;1.25;;;;;;;33.24;27.79;97639.34;5069832;28;20041;-80
2022/10/01 11:42:01;;;;;;;3.90;1.30;;;;;;;33.77;26.61;97635.78;5069312;28;20040;-80
2022/10/01 11:44:36;;;;;;;1.52;1.42;;;;;;;33.80;27.26;97623.38;5071925;28;20498;-81
2022/10/01 11:47:24;;;;;;;2.10;1.90;;;;;;;32.68;26.55;97625.97;5068207;28;20478;-80
2022/10/01 11:50:06;;;;;;;1.35;1.25;;;;;;;31.95;29.03;97626.47;5071459;28;20064;-80
2022/10/01 11:52:57;;;;;;;1.92;1.73;;;;;;;32.24;28.69;97631.97;5069964;28;20048;-80
2022/10/01 11:58:53;;;;;;;1.85;1.60;;;;;;;32.66;28.18;97617.16;5066988;28;20056;-80